Time;durP1;ratioP1;P1;durP2;ratioP2;P2;SDS_P1;SDS_P2;PMS_P1;PMS_P2;Temp;Humidity;BMP_temperature;BMP_pressure;BME280_temperature;BME280_humidity;BME280_pressure;Samples;Min_cycle;Max_cycle;Signal;HPM_P1;HPM_P2
2021/01/18 00:00:55;;;;;;;45.63;24.67;;;;;;;-1.64;89.84;102096.13;4925738;29;20446;-79
2021/01/18 00:03:21;;;;;;;46.13;22.73;;;;;;;-1.64;90.21;102096.13;4935691;29;20066;-77
2021/01/18 00:05:46;;;;;;;45.13;24.00;;;;;;;-1.65;90.29;102091.03;4935111;28;20051;-77
2021/01/18 00:08:12;;;;;;;43.83;24.30;;;;;;;-1.64;89.96;102093.56;4953944;28;20043;-75
2021/01/18 00:10:37;;;;;;;44.97;23.73;;;;;;;-1.58;90.13;102096.00;4954934;28;20032;-77
2021/01/18 00:13:03;;;;;;;48.25;24.67;;;;;;;-1.59;90.02;102094.28;4947335;28;20043;-77
2021/01/18 00:15:28;;;;;;;45.70;23.70;;;;;;;-1.63;90.19;102082.38;4939063;28;20166;-76
2021/01/18 00:17:54;;;;;;;43.58;22.30;;;;;;;-1.62;90.48;102089.22;4944399;29;20042;-77
2021/01/18 00:20:21;;;;;;;48.38;24.10;;;;;;;-1.62;90.70;102089.22;4918681;29;20387;-77
2021/01/18 00:22:48;;;;;;;47.72;24.25;;;;;;;-1.62;90.69;102081.50;4920135;29;20065;-76
2021/01/18 00:25:20;;;;;;;49.45;25.15;;;;;;;-1.61;90.85;102079.78;4944789;28;20046;-78
2021/01/18 00:27:45;;;;;;;51.30;25.48;;;;;;;-1.52;90.57;102092.44;4940022;29;20036;-80
2021/01/18 00:30:12;;;;;;;46.30;24.15;;;;;;;-1.53;90.97;102090.72;4964672;28;20077;-79
2021/01/18 00:32:39;;;;;;;50.80;25.65;;;;;;;-1.54;91.08;102090.75;4956239;28;20036;-76
2021/01/18 00:35:06;;;;;;;51.13;26.67;;;;;;;-1.56;91.46;102085.66;4928980;29;20067;-75
2021/01/18 00:37:31;;;;;;;50.17;24.88;;;;;;;-1.59;91.51;102078.84;4950420;28;20028;-77
2021/01/18 00:39:58;;;;;;;50.10;25.38;;;;;;;-1.59;92.04;102084.00;4959091;28;20035;-77
2021/01/18 00:42:23;;;;;;;50.13;26.35;;;;;;;-1.55;91.92;102071.06;4925058;29;20045;-76
2021/01/18 00:44:49;;;;;;;53.47;26.13;;;;;;;-1.58;92.15;102070.25;4949076;29;20031;-76
2021/01/18 00:47:14;;;;;;;53.35;27.20;;;;;;;-1.60;92.33;102072.03;4935417;28;20402;-76
2021/01/18 00:49:40;;;;;;;53.67;25.70;;;;;;;-1.57;92.17;102071.94;4942629;28;20036;-76
2021/01/18 00:52:06;;;;;;;56.95;28.27;;;;;;;-1.63;92.18;102077.22;4927819;29;20055;-76
2021/01/18 00:54:32;;;;;;;57.85;27.90;;;;;;;-1.67;92.88;102079.91;4906940;29;20039;-77
2021/01/18 00:57:08;;;;;;;53.85;26.65;;;;;;;-1.64;93.35;102079.81;4936835;28;20122;-76
2021/01/18 00:59:43;;;;;;;53.38;26.25;;;;;;;-1.66;93.30;102081.59;4944499;29;20063;-78
2021/01/18 01:02:10;;;;;;;61.35;29.48;;;;;;;-1.68;93.41;102071.34;4913507;29;20046;-76
2021/01/18 01:04:37;;;;;;;53.60;26.88;;;;;;;-1.63;93.46;102072.06;4939998;29;20047;-78
2021/01/18 01:07:03;;;;;;;55.85;27.95;;;;;;;-1.51;93.14;102072.69;4943675;29;20034;-76
2021/01/18 01:09:29;;;;;;;53.70;27.02;;;;;;;-1.58;93.16;102067.69;4924202;29;20425;-77
2021/01/18 01:11:54;;;;;;;59.88;28.92;;;;;;;-1.54;92.92;102075.31;4949906;28;20031;-79
2021/01/18 01:14:20;;;;;;;60.58;28.92;;;;;;;-1.58;93.07;102066.84;4944944;28;20039;-77
2021/01/18 01:16:45;;;;;;;58.28;29.35;;;;;;;-1.61;93.54;102056.63;4936385;29;20043;-77
2021/01/18 01:19:11;;;;;;;65.85;29.90;;;;;;;-1.62;93.98;102066.06;4933904;29;20504;-79
2021/01/18 01:21:47;;;;;;;63.50;29.73;;;;;;;-1.59;93.88;102065.13;4924736;29;20071;-79
2021/01/18 01:24:20;;;;;;;57.80;27.73;;;;;;;-1.61;94.01;102066.91;4945251;28;20516;-79
2021/01/18 01:26:46;;;;;;;68.13;32.75;;;;;;;-1.66;94.76;102067.00;4931677;29;20220;-77
2021/01/18 01:29:12;;;;;;;65.40;31.10;;;;;;;-1.66;94.40;102051.56;4960803;28;20566;-77
2021/01/18 01:31:38;;;;;;;61.50;30.25;;;;;;;-1.71;94.75;102049.97;4948531;29;20027;-80
2021/01/18 01:34:05;;;;;;;62.58;28.85;;;;;;;-1.70;94.97;102059.41;4940655;29;20040;-79
2021/01/18 01:36:31;;;;;;;64.15;31.02;;;;;;;-1.65;95.07;102066.13;4931688;29;20031;-78
2021/01/18 01:38:57;;;;;;;67.75;31.70;;;;;;;-1.71;95.02;102055.13;4955521;28;20089;-79
2021/01/18 01:41:23;;;;;;;69.05;31.08;;;;;;;-1.63;94.92;102056.66;4938952;28;20165;-79
2021/01/18 01:43:48;;;;;;;65.80;30.40;;;;;;;-1.65;94.67;102055.84;4921027;28;20051;-76
2021/01/18 01:46:15;;;;;;;64.70;31.77;;;;;;;-1.66;94.98;102058.44;4920916;29;20448;-79
2021/01/18 01:48:41;;;;;;;69.38;31.30;;;;;;;-1.70;95.11;102054.25;4944142;29;20090;-78
2021/01/18 01:51:07;;;;;;;71.32;33.85;;;;;;;-1.74;95.10;102048.31;4931458;29;20051;-78
2021/01/18 01:53:34;;;;;;;69.32;31.58;;;;;;;-1.73;95.21;102046.59;4954435;28;20438;-78
2021/01/18 01:56:00;;;;;;;74.55;31.98;;;;;;;-1.66;95.53;102048.16;4939754;29;20035;-78
2021/01/18 01:58:27;;;;;;;72.85;31.58;;;;;;;-1.72;95.39;102044.00;4932558;29;20557;-78
2021/01/18 02:00:56;;;;;;;64.72;30.77;;;;;;;-1.72;94.91;102046.56;4944637;29;20027;-79
2021/01/18 02:03:38;;;;;;;71.43;30.90;;;;;;;-1.59;94.87;102045.38;4944389;29;20119;-77
2021/01/18 02:06:05;;;;;;;63.77;29.97;;;;;;;-1.60;95.06;102048.00;4945039;29;20027;-76
2021/01/18 02:08:30;;;;;;;72.90;31.92;;;;;;;-1.60;94.89;102048.00;4943345;28;20301;-76
2021/01/18 02:10:56;;;;;;;64.05;31.00;;;;;;;-1.47;94.10;102036.56;4912488;28;20457;-77
2021/01/18 02:13:33;;;;;;;65.18;29.35;;;;;;;-1.53;94.47;102039.25;4930159;29;20071;-78
2021/01/18 02:16:17;;;;;;;67.45;30.13;;;;;;;-1.63;94.75;102041.22;4936187;29;20035;-76
2021/01/18 02:19:11;;;;;;;60.33;29.05;;;;;;;-1.57;94.80;102041.06;4949797;28;20053;-78
2021/01/18 02:22:05;;;;;;;67.20;30.60;;;;;;;-1.63;95.13;102033.50;4931688;29;20043;-78
2021/01/18 02:24:49;;;;;;;69.32;31.20;;;;;;;-1.60;94.91;102042.84;4947303;28;20043;-77
2021/01/18 02:27:40;;;;;;;64.85;30.13;;;;;;;-1.55;94.83;102042.75;4923614;29;20039;-77
2021/01/18 02:30:31;;;;;;;65.72;29.98;;;;;;;-1.59;95.07;102036.84;4974089;28;20047;-77
2021/01/18 02:33:30;;;;;;;64.43;30.30;;;;;;;-1.51;95.18;102034.91;4953620;29;20067;-77
2021/01/18 02:36:10;;;;;;;67.75;29.98;;;;;;;-1.52;95.17;102038.38;4967834;28;20050;-76
2021/01/18 02:38:47;;;;;;;69.95;31.58;;;;;;;-1.57;95.48;102030.75;4942058;28;21075;-76
2021/01/18 02:41:29;;;;;;;66.95;30.23;;;;;;;-1.51;95.01;102037.47;4944464;29;20047;-76
2021/01/18 02:44:00;;;;;;;71.65;32.47;;;;;;;-1.53;95.06;102026.38;4948240;28;20046;-78
2021/01/18 02:46:27;;;;;;;72.85;31.90;;;;;;;-1.53;95.44;102035.84;4950111;28;20039;-78
2021/01/18 02:48:54;;;;;;;78.13;32.25;;;;;;;-1.53;94.97;102034.09;4946644;28;20501;-77
2021/01/18 02:51:22;;;;;;;69.25;31.65;;;;;;;-1.57;95.35;102030.75;4938350;28;20049;-76
2021/01/18 02:54:01;;;;;;;77.05;31.98;;;;;;;-1.58;95.76;102031.66;4943342;28;20055;-77
2021/01/18 02:56:33;;;;;;;80.82;32.80;;;;;;;-1.56;95.96;102026.47;4944890;28;20062;-77
2021/01/18 02:58:59;;;;;;;82.70;35.28;;;;;;;-1.59;96.13;102029.13;4936952;29;20043;-77
2021/01/18 03:01:49;;;;;;;73.03;31.73;;;;;;;-1.59;96.00;102021.41;4945995;29;20046;-76
2021/01/18 03:04:51;;;;;;;72.03;30.08;;;;;;;-1.58;96.12;102026.50;4946511;29;20047;-76
2021/01/18 03:07:28;;;;;;;75.22;31.25;;;;;;;-1.59;96.28;102027.38;4920681;28;20060;-77
2021/01/18 03:10:18;;;;;;;85.97;33.47;;;;;;;-1.87;96.39;101983.47;4952377;28;20417;-78
2021/01/18 03:13:01;;;;;;;82.38;34.83;;;;;;;-1.54;96.06;102029.84;4952626;29;20782;-78
2021/01/18 03:15:34;;;;;;;67.95;29.38;;;;;;;-1.49;95.74;102022.84;4912440;29;20027;-78
2021/01/18 03:18:02;;;;;;;74.07;30.08;;;;;;;-1.50;96.00;102015.19;4927625;29;20035;-78
2021/01/18 03:20:30;;;;;;;74.53;31.70;;;;;;;-1.52;96.03;102012.66;4924595;29;20126;-78
2021/01/18 03:23:06;;;;;;;73.43;29.65;;;;;;;-1.55;96.64;102012.72;4915356;29;20445;-80
2021/01/18 03:26:02;;;;;;;77.70;31.30;;;;;;;-1.49;96.48;102012.56;4907319;29;20099;-81
2021/01/18 03:28:27;;;;;;;79.07;31.50;;;;;;;-1.47;96.18;102015.97;4919902;29;20063;-81
2021/01/18 03:30:53;;;;;;;71.68;29.88;;;;;;;-1.48;96.31;102011.69;4906325;29;20063;-79
2021/01/18 03:33:18;;;;;;;84.32;35.42;;;;;;;-1.53;96.53;102020.41;4909215;29;20074;-79
2021/01/18 03:35:44;;;;;;;73.82;30.45;;;;;;;-1.50;96.57;102021.19;4912329;29;20409;-79
2021/01/18 03:38:10;;;;;;;73.82;31.13;;;;;;;-1.47;96.71;102010.81;4920571;29;20510;-79
2021/01/18 03:40:37;;;;;;;76.90;32.40;;;;;;;-1.51;96.41;102003.19;4899242;29;20032;-79
2021/01/18 03:43:05;;;;;;;78.50;33.22;;;;;;;-1.21;95.82;102022.16;4933087;29;20044;-80
2021/01/18 03:45:34;;;;;;;75.45;31.42;;;;;;;-1.25;95.46;102021.41;4912072;29;20024;-80
2021/01/18 03:48:00;;;;;;;76.32;34.45;;;;;;;-1.43;96.31;102015.00;4899471;29;20043;-78
2021/01/18 03:50:26;;;;;;;73.88;29.50;;;;;;;-1.48;96.37;102014.25;4931443;29;20074;-78
2021/01/18 03:52:52;;;;;;;88.32;32.78;;;;;;;-1.44;96.55;102021.00;4944884;29;20299;-78
2021/01/18 03:55:19;;;;;;;83.15;33.67;;;;;;;-1.54;96.86;102016.13;4924440;29;20040;-78
2021/01/18 03:57:46;;;;;;;74.13;27.98;;;;;;;-1.57;96.92;102028.19;4945823;29;20039;-80
2021/01/18 04:00:12;;;;;;;79.55;30.50;;;;;;;-1.45;97.00;102018.47;4931377;29;20039;-78
2021/01/18 04:02:39;;;;;;;81.07;31.98;;;;;;;-1.48;96.99;102011.69;4912371;29;20040;-79
2021/01/18 04:05:05;;;;;;;75.10;31.98;;;;;;;-1.49;97.07;102007.41;4937285;29;20442;-78
2021/01/18 04:07:31;;;;;;;75.35;29.70;;;;;;;-1.42;96.86;102011.53;4911913;29;20044;-78
2021/01/18 04:09:56;;;;;;;83.50;31.40;;;;;;;-1.42;97.00;102001.22;4941770;29;20068;-79
2021/01/18 04:12:22;;;;;;;71.88;28.60;;;;;;;-1.44;96.80;102002.16;4908930;29;20175;-79
2021/01/18 04:14:49;;;;;;;89.55;35.70;;;;;;;-1.45;97.50;102000.47;4915414;29;20039;-79
2021/01/18 04:17:16;;;;;;;70.45;30.70;;;;;;;-1.42;97.08;101997.81;4926873;29;20066;-78
2021/01/18 04:19:41;;;;;;;86.35;31.88;;;;;;;-1.39;96.93;102002.91;4920157;29;20052;-79
2021/01/18 04:22:07;;;;;;;89.75;33.75;;;;;;;-1.44;96.86;101999.59;4927980;29;20099;-78
2021/01/18 04:24:33;;;;;;;86.10;33.63;;;;;;;-1.40;97.13;102001.19;4909796;29;20075;-78
2021/01/18 04:26:59;;;;;;;75.95;28.52;;;;;;;-1.42;97.12;101993.50;4927458;29;20036;-79
2021/01/18 04:29:25;;;;;;;79.13;30.83;;;;;;;-1.42;97.09;101982.38;4926277;29;20492;-78
2021/01/18 04:31:51;;;;;;;82.03;31.02;;;;;;;-1.39;97.17;101990.03;4940323;29;20153;-78
2021/01/18 04:34:16;;;;;;;70.63;28.35;;;;;;;-1.41;97.09;101990.06;4917713;29;20032;-78
2021/01/18 04:36:43;;;;;;;79.05;32.40;;;;;;;-1.27;96.85;101991.44;4932148;29;20044;-79
2021/01/18 04:39:10;;;;;;;82.43;32.88;;;;;;;-1.31;96.76;101987.25;4929119;29;20039;-78
2021/01/18 04:41:44;;;;;;;74.38;31.45;;;;;;;-1.32;97.00;101995.84;4914983;29;20043;-78
2021/01/18 04:44:12;;;;;;;71.72;29.05;;;;;;;-1.30;97.06;101999.22;4941964;29;20035;-78
2021/01/18 04:46:43;;;;;;;71.07;28.75;;;;;;;-1.28;96.80;101992.31;4915643;29;20032;-78
2021/01/18 04:49:10;;;;;;;95.25;35.22;;;;;;;-1.29;97.06;102003.50;4927643;29;20103;-79
2021/01/18 04:51:44;;;;;;;74.88;30.35;;;;;;;-1.26;97.13;101990.53;4931080;29;20035;-79
2021/01/18 04:54:13;;;;;;;76.70;32.03;;;;;;;-1.22;97.05;101992.19;4903085;29;20095;-78
2021/01/18 04:57:05;;;;;;;73.45;30.88;;;;;;;-1.21;97.08;101996.41;4926513;29;20048;-79
2021/01/18 04:59:43;;;;;;;80.05;31.35;;;;;;;-1.18;96.96;101996.34;4910826;29;20473;-79
2021/01/18 05:02:34;;;;;;;68.75;30.58;;;;;;;-1.17;97.06;101990.31;4939055;29;20096;-78
2021/01/18 05:05:20;;;;;;;72.55;30.65;;;;;;;-1.17;97.13;101998.03;4925443;29;20031;-78
2021/01/18 05:08:06;;;;;;;85.20;33.03;;;;;;;-1.16;96.94;101996.31;4932971;29;20067;-78
2021/01/18 05:10:33;;;;;;;80.85;33.35;;;;;;;-1.10;96.84;101999.56;4914960;29;20039;-78
2021/01/18 05:13:01;;;;;;;78.88;31.50;;;;;;;-1.11;97.09;101997.03;4947942;29;20039;-79
2021/01/18 05:15:27;;;;;;;81.07;33.30;;;;;;;-1.04;97.05;101996.81;4944730;29;20119;-79
2021/01/18 05:17:58;;;;;;;86.38;35.08;;;;;;;-1.13;97.21;101994.50;4914489;29;20076;-78
2021/01/18 05:20:24;;;;;;;81.75;33.58;;;;;;;-1.03;97.26;101998.50;4914757;29;20032;-80
2021/01/18 05:22:51;;;;;;;77.20;32.33;;;;;;;-1.05;97.38;101996.88;4941283;29;20447;-79
2021/01/18 05:25:18;;;;;;;83.43;34.20;;;;;;;-1.13;97.46;101999.66;4900582;29;20032;-78
2021/01/18 05:28:07;;;;;;;73.00;29.77;;;;;;;-1.13;97.61;101998.78;4929705;29;20040;-78
2021/01/18 05:30:41;;;;;;;82.40;31.77;;;;;;;-1.16;97.68;101996.31;4927912;29;20032;-79
2021/01/18 05:33:10;;;;;;;77.45;31.05;;;;;;;-1.15;97.62;101998.00;4925809;29;20405;-77
2021/01/18 05:35:47;;;;;;;73.85;29.98;;;;;;;-1.22;98.09;101990.44;4911594;29;20053;-79
2021/01/18 05:38:14;;;;;;;89.53;34.58;;;;;;;-1.14;98.04;101999.69;4912958;29;20514;-79
2021/01/18 05:40:41;;;;;;;76.95;29.98;;;;;;;-1.14;97.93;101995.38;4928202;29;20486;-79
2021/01/18 05:43:07;;;;;;;75.30;29.88;;;;;;;-1.21;97.98;101986.97;4931010;29;20055;-79
2021/01/18 05:45:38;;;;;;;69.15;28.40;;;;;;;-1.16;98.03;101986.84;4942782;29;20044;-78
2021/01/18 05:48:06;;;;;;;78.82;31.25;;;;;;;-1.16;97.90;101992.00;4933490;29;20060;-79
2021/01/18 05:50:33;;;;;;;73.22;30.33;;;;;;;-1.16;98.03;101981.72;4927452;29;20040;-78
2021/01/18 05:53:00;;;;;;;71.95;29.05;;;;;;;-1.13;98.13;101979.06;4912697;29;20087;-79
2021/01/18 05:55:27;;;;;;;64.57;27.20;;;;;;;-1.13;98.41;101986.78;4910371;29;20064;-78
2021/01/18 05:57:58;;;;;;;72.55;32.05;;;;;;;-1.14;98.48;101984.25;4920155;29;20044;-79
2021/01/18 06:00:28;;;;;;;86.90;32.95;;;;;;;-1.19;98.31;101974.91;4894223;29;20047;-79
2021/01/18 06:02:54;;;;;;;70.13;27.70;;;;;;;-1.16;98.55;101984.28;4898372;29;20055;-79
2021/01/18 06:05:25;;;;;;;67.63;26.85;;;;;;;-1.15;98.59;101990.25;4915851;28;20051;-79
2021/01/18 06:07:51;;;;;;;73.68;30.90;;;;;;;-1.11;98.38;101986.72;4938502;29;20032;-79
2021/01/18 06:10:17;;;;;;;60.35;25.98;;;;;;;-1.08;98.21;101984.91;4964273;29;20039;-79
2021/01/18 06:12:43;;;;;;;64.25;28.83;;;;;;;-1.06;98.38;101988.28;4920321;29;20044;-78
2021/01/18 06:15:15;;;;;;;62.95;26.90;;;;;;;-1.03;98.76;101987.38;4912791;29;20042;-79
2021/01/18 06:17:51;;;;;;;80.32;31.00;;;;;;;-0.98;98.64;101998.38;4937434;29;20040;-80
2021/01/18 06:20:18;;;;;;;73.22;29.92;;;;;;;-0.89;98.25;101992.16;4923354;29;20039;-78
2021/01/18 06:22:49;;;;;;;73.47;27.58;;;;;;;-0.80;97.97;101994.47;4938011;29;20573;-79
2021/01/18 06:25:14;;;;;;;67.78;28.17;;;;;;;-0.86;97.97;101995.47;4930086;29;20078;-79
2021/01/18 06:27:40;;;;;;;72.10;28.13;;;;;;;-0.96;98.06;101982.88;4911933;29;20044;-79
2021/01/18 06:30:26;;;;;;;67.40;28.83;;;;;;;-0.77;97.54;101989.25;4941684;29;20035;-79
2021/01/18 06:32:54;;;;;;;66.25;25.23;;;;;;;-0.82;98.11;101985.94;4928124;29;20043;-79
2021/01/18 06:35:32;;;;;;;59.08;25.95;;;;;;;-0.87;98.18;101986.06;4936698;29;20051;-79
2021/01/18 06:38:05;;;;;;;60.22;24.08;;;;;;;-0.77;97.97;101994.41;4931289;29;20112;-79
2021/01/18 06:40:36;;;;;;;59.00;23.70;;;;;;;-0.85;98.35;102004.91;4932481;29;20059;-78
2021/01/18 06:43:03;;;;;;;68.07;26.88;;;;;;;-0.87;98.56;102006.66;4958978;28;20060;-79
2021/01/18 06:45:34;;;;;;;58.63;25.17;;;;;;;-0.94;98.64;102012.03;4937357;29;20414;-78
2021/01/18 06:48:01;;;;;;;55.92;22.73;;;;;;;-0.97;98.83;102012.97;4939798;29;20135;-79
2021/01/18 06:50:32;;;;;;;59.53;24.55;;;;;;;-0.99;98.82;102015.56;4926137;29;20079;-79
2021/01/18 06:53:13;;;;;;;64.35;24.25;;;;;;;-0.99;98.70;102017.31;4945044;28;20052;-78
2021/01/18 06:55:56;;;;;;;56.78;22.63;;;;;;;-0.98;98.87;102019.84;4933847;29;20040;-77
2021/01/18 06:58:50;;;;;;;52.28;21.17;;;;;;;-0.82;99.07;102006.56;4936391;29;20055;-79
2021/01/18 07:01:38;;;;;;;60.22;18.45;;;;;;;-0.64;99.51;102020.63;4938092;29;20040;-78
2021/01/18 07:04:13;;;;;;;50.20;18.02;;;;;;;-0.26;99.42;102009.25;4939670;29;20044;-78
2021/01/18 07:06:43;;;;;;;52.20;18.30;;;;;;;0.12;99.82;102009.81;4927626;29;20481;-78
2021/01/18 07:09:15;;;;;;;54.25;17.52;;;;;;;0.14;99.81;102009.75;4912253;29;20067;-79
2021/01/18 07:11:42;;;;;;;47.72;15.40;;;;;;;-0.04;99.29;102011.16;4909538;29;20059;-80
2021/01/18 07:14:09;;;;;;;47.97;16.08;;;;;;;0.01;99.46;102005.88;4941972;29;20043;-79
2021/01/18 07:16:35;;;;;;;47.92;17.58;;;;;;;0.15;99.57;102008.84;4923659;29;20043;-79
2021/01/18 07:19:03;;;;;;;47.85;17.75;;;;;;;0.27;99.42;102017.97;4911838;29;20036;-80
2021/01/18 07:21:46;;;;;;;47.38;16.13;;;;;;;0.20;99.25;102014.72;4925115;29;20032;-80
2021/01/18 07:24:15;;;;;;;48.38;15.90;;;;;;;0.22;99.32;102018.09;4911248;29;20042;-79
2021/01/18 07:27:04;;;;;;;53.50;16.25;;;;;;;0.08;99.36;102013.38;4911032;29;20406;-79
2021/01/18 07:29:31;;;;;;;39.65;15.63;;;;;;;0.02;99.44;102007.53;4958827;28;20046;-79
2021/01/18 07:31:59;;;;;;;48.83;16.17;;;;;;;0.01;99.49;102013.63;4933165;29;20139;-80
2021/01/18 07:34:26;;;;;;;46.13;16.33;;;;;;;-0.03;99.28;102011.13;4903957;29;20123;-78
2021/01/18 07:37:04;;;;;;;50.30;16.08;;;;;;;-0.10;99.68;102011.34;4932892;29;20036;-78
2021/01/18 07:39:38;;;;;;;42.53;16.42;;;;;;;0.09;99.73;102003.88;4923540;29;20035;-78
2021/01/18 07:42:05;;;;;;;41.33;16.88;;;;;;;0.10;99.72;102003.84;4931250;29;20047;-78
2021/01/18 07:44:45;;;;;;;46.50;18.20;;;;;;;0.39;99.89;102005.47;4926568;29;20024;-78
2021/01/18 07:47:14;;;;;;;50.60;17.23;;;;;;;0.55;99.38;102003.25;4927219;29;20043;-78
2021/01/18 07:49:42;;;;;;;53.58;18.48;;;;;;;0.66;99.44;102004.63;4923834;29;20047;-79
2021/01/18 07:52:25;;;;;;;51.60;19.00;;;;;;;0.65;99.22;102000.38;4927726;29;20046;-78
2021/01/18 07:54:51;;;;;;;47.50;18.38;;;;;;;0.64;98.99;101996.09;4917978;29;20071;-80
2021/01/18 07:57:30;;;;;;;51.05;18.67;;;;;;;0.64;99.13;101999.53;4908853;29;20458;-80
2021/01/18 08:00:28;;;;;;;49.05;17.83;;;;;;;0.78;98.94;101997.31;4940989;29;20036;-80
2021/01/18 08:03:06;;;;;;;51.47;17.35;;;;;;;0.83;98.68;102001.47;4921207;29;20055;-79
2021/01/18 08:05:37;;;;;;;43.40;16.13;;;;;;;0.89;98.45;101996.09;4912109;29;20035;-80
2021/01/18 08:08:14;;;;;;;44.15;15.30;;;;;;;0.97;98.44;101997.50;4952539;29;20410;-82
2021/01/18 08:11:16;;;;;;;34.58;14.70;;;;;;;0.99;98.08;101999.22;4921715;29;20447;-79
2021/01/18 08:13:53;;;;;;;44.35;14.82;;;;;;;1.01;98.60;101998.25;4905534;29;20040;-79
2021/01/18 08:16:24;;;;;;;32.80;14.50;;;;;;;0.96;98.70;101984.63;4919674;29;20036;-79
2021/01/18 08:19:14;;;;;;;34.35;14.57;;;;;;;0.94;98.71;101983.84;4914747;29;20047;-80
2021/01/18 08:21:45;;;;;;;35.30;13.52;;;;;;;1.02;98.61;101993.91;4935935;29;20095;-79
2021/01/18 08:24:23;;;;;;;34.05;13.35;;;;;;;1.05;98.50;101986.91;4943439;29;20035;-80
2021/01/18 08:27:06;;;;;;;28.23;12.55;;;;;;;0.99;98.39;101992.28;4905057;29;20082;-79
2021/01/18 08:29:50;;;;;;;25.50;11.27;;;;;;;1.11;98.38;101989.28;4930345;29;20043;-79
2021/01/18 08:32:33;;;;;;;26.50;12.02;;;;;;;1.14;98.14;101978.00;4899177;29;20040;-79
2021/01/18 08:34:59;;;;;;;28.80;11.73;;;;;;;1.18;97.85;101976.97;4919646;29;20162;-79
2021/01/18 08:37:26;;;;;;;28.85;11.85;;;;;;;1.19;98.01;101970.06;4904622;29;20095;-78
2021/01/18 08:40:24;;;;;;;36.33;13.10;;;;;;;1.27;98.17;101968.06;4907633;29;20513;-79
2021/01/18 08:42:55;;;;;;;35.67;12.00;;;;;;;1.20;98.16;101962.25;4883105;29;20035;-78
2021/01/18 08:45:39;;;;;;;27.40;12.48;;;;;;;1.34;97.86;101954.00;4924043;29;20031;-78
2021/01/18 08:48:07;;;;;;;42.00;13.10;;;;;;;1.32;98.09;101955.81;4920341;29;20048;-78
2021/01/18 08:50:53;;;;;;;43.08;14.27;;;;;;;1.24;98.50;101948.31;4915826;29;20055;-81
2021/01/18 08:53:40;;;;;;;37.17;12.85;;;;;;;1.30;98.25;101950.69;4901555;29;20379;-78
2021/01/18 08:56:07;;;;;;;42.55;15.35;;;;;;;1.38;98.24;101945.22;4910184;29;20108;-79
2021/01/18 08:58:43;;;;;;;41.63;13.88;;;;;;;1.38;98.06;101947.81;4932790;29;20042;-79
2021/01/18 09:01:20;;;;;;;38.70;14.13;;;;;;;1.41;97.67;101941.69;4924612;29;20391;-80
2021/01/18 09:04:02;;;;;;;40.40;15.00;;;;;;;1.47;97.89;101934.53;4927198;29;20040;-78
2021/01/18 09:06:31;;;;;;;50.38;16.73;;;;;;;1.51;97.74;101936.09;4937730;28;20421;-80
2021/01/18 09:09:01;;;;;;;46.47;16.75;;;;;;;1.61;97.37;101943.50;4919203;29;20051;-79
2021/01/18 09:11:27;;;;;;;50.90;17.63;;;;;;;1.58;97.47;101936.69;4945018;23;20047;-79
2021/01/18 09:13:52;;;;;;;65.15;19.17;;;;;;;1.53;97.35;101923.13;4931929;29;20130;-79
2021/01/18 09:16:18;;;;;;;58.92;19.10;;;;;;;1.52;97.61;101927.44;4909360;29;20040;-79
2021/01/18 09:18:44;;;;;;;57.50;18.73;;;;;;;1.65;97.22;101940.72;4903013;29;20036;-77
2021/01/18 09:21:09;;;;;;;60.40;18.20;;;;;;;1.72;97.16;101937.00;4931736;28;20038;-79
2021/01/18 09:23:35;;;;;;;59.53;18.88;;;;;;;1.66;97.15;101937.25;4912969;29;20039;-79
2021/01/18 09:26:07;;;;;;;62.10;20.45;;;;;;;1.73;97.09;101935.25;4904260;29;20746;-79
2021/01/18 09:28:34;;;;;;;70.60;20.27;;;;;;;1.72;97.11;101924.06;4890854;29;20045;-79
2021/01/18 09:31:10;;;;;;;67.88;20.52;;;;;;;1.75;97.47;101936.91;4884797;29;20048;-79
2021/01/18 09:33:37;;;;;;;63.00;20.98;;;;;;;1.78;96.73;101929.91;4889355;29;20048;-79
2021/01/18 09:36:03;;;;;;;64.03;21.92;;;;;;;1.86;96.97;101935.63;4931148;29;20502;-77
2021/01/18 09:38:28;;;;;;;61.40;20.65;;;;;;;1.85;96.79;101939.97;4901251;29;20044;-77
2021/01/18 09:40:54;;;;;;;74.63;22.10;;;;;;;1.85;96.71;101932.19;4885517;29;20040;-78
2021/01/18 09:43:21;;;;;;;65.25;21.33;;;;;;;1.89;96.92;101944.09;4901966;29;20072;-78
2021/01/18 09:45:54;;;;;;;54.65;20.30;;;;;;;1.90;96.82;101943.22;4900979;29;20054;-78
2021/01/18 09:48:24;;;;;;;61.88;18.65;;;;;;;1.76;97.36;101935.16;4898514;29;20048;-78
2021/01/18 09:50:58;;;;;;;61.30;20.75;;;;;;;1.91;97.12;101934.53;4904388;29;20039;-79
2021/01/18 09:53:25;;;;;;;58.83;20.17;;;;;;;1.97;96.86;101930.03;4901552;29;20032;-80
2021/01/18 09:55:51;;;;;;;70.15;19.67;;;;;;;2.04;96.74;101936.66;4900844;29;20032;-77
2021/01/18 09:58:25;;;;;;;54.85;20.63;;;;;;;2.11;96.90;101940.66;4898537;29;20136;-78
2021/01/18 10:00:52;;;;;;;57.40;20.23;;;;;;;2.08;96.64;101923.50;4901650;29;20046;-77
2021/01/18 10:03:32;;;;;;;55.35;20.30;;;;;;;2.20;96.52;101929.09;4900846;29;20402;-78
2021/01/18 10:06:25;;;;;;;65.65;21.00;;;;;;;2.19;96.07;101923.06;4917042;29;20044;-79
2021/01/18 10:08:52;;;;;;;50.90;18.35;;;;;;;2.20;96.21;101919.56;4910849;29;20028;-78
2021/01/18 10:11:42;;;;;;;54.88;18.05;;;;;;;2.31;96.15;101927.72;4905605;29;20063;-77
2021/01/18 10:14:22;;;;;;;47.72;19.05;;;;;;;2.30;96.17;101918.28;4903555;29;20102;-78
2021/01/18 10:17:07;;;;;;;51.47;18.15;;;;;;;2.37;96.05;101930.97;4917458;29;20335;-78
2021/01/18 10:19:38;;;;;;;53.78;19.42;;;;;;;2.31;96.01;101919.13;4891805;29;20522;-78
2021/01/18 10:22:05;;;;;;;50.17;18.15;;;;;;;2.18;96.25;101900.66;4903460;29;20040;-78
2021/01/18 10:24:36;;;;;;;48.38;18.13;;;;;;;2.17;96.37;101908.50;4907712;29;20123;-78
2021/01/18 10:27:13;;;;;;;44.25;17.92;;;;;;;2.16;96.81;101893.88;4911683;29;20032;-77
2021/01/18 10:29:40;;;;;;;46.72;17.65;;;;;;;2.19;96.38;101889.41;4888813;29;20410;-78
2021/01/18 10:32:07;;;;;;;45.20;19.10;;;;;;;2.20;96.58;101882.50;4915954;29;20091;-77
2021/01/18 10:34:34;;;;;;;46.03;17.30;;;;;;;2.20;96.68;101872.13;4916705;29;20040;-79
2021/01/18 10:37:12;;;;;;;41.75;16.85;;;;;;;2.22;96.64;101878.91;4909697;29;20044;-78
2021/01/18 10:39:39;;;;;;;41.38;16.00;;;;;;;2.24;96.69;101884.91;4885241;29;20051;-78
2021/01/18 10:42:13;;;;;;;37.95;16.25;;;;;;;2.18;96.76;101866.19;4917586;29;20043;-77
2021/01/18 10:44:56;;;;;;;39.50;14.98;;;;;;;2.06;97.12;101850.25;4900702;29;20036;-77
2021/01/18 10:47:26;;;;;;;38.08;15.23;;;;;;;2.13;96.85;101862.03;4909309;29;20039;-77
2021/01/18 10:49:53;;;;;;;35.75;15.55;;;;;;;2.12;97.05;101857.75;4932235;29;20032;-78
2021/01/18 10:52:31;;;;;;;39.75;16.17;;;;;;;2.10;96.85;101848.38;4900690;29;20395;-77
2021/01/18 10:55:01;;;;;;;42.10;14.95;;;;;;;2.09;97.09;101836.34;4907989;29;20060;-76
2021/01/18 10:57:27;;;;;;;31.98;13.30;;;;;;;2.03;97.06;101829.66;4885857;29;20036;-77
2021/01/18 11:00:06;;;;;;;37.67;14.25;;;;;;;2.06;97.41;101833.91;4897433;29;20223;-77
2021/01/18 11:02:32;;;;;;;33.67;13.30;;;;;;;2.03;97.45;101824.50;4893314;29;20032;-77
2021/01/18 11:04:58;;;;;;;28.83;13.20;;;;;;;2.04;97.25;101813.25;4894002;29;20040;-77
2021/01/18 11:07:24;;;;;;;28.30;13.32;;;;;;;2.06;97.33;101816.63;4919564;29;20031;-78
2021/01/18 11:09:57;;;;;;;29.60;13.93;;;;;;;2.02;97.23;101809.06;4889711;29;20399;-78
2021/01/18 11:12:38;;;;;;;31.70;14.20;;;;;;;2.10;97.31;101815.56;4910195;29;20031;-77
2021/01/18 11:15:06;;;;;;;30.20;13.55;;;;;;;2.05;97.13;101806.31;4900518;29;20055;-78
2021/01/18 11:17:32;;;;;;;32.95;13.65;;;;;;;2.04;97.15;101794.31;4913310;29;20036;-78
2021/01/18 11:19:58;;;;;;;38.95;14.50;;;;;;;2.11;97.41;101799.16;4885589;29;20076;-78
2021/01/18 11:22:24;;;;;;;27.77;14.55;;;;;;;2.13;97.27;101801.69;4896259;29;20502;-76
2021/01/18 11:24:50;;;;;;;34.53;15.20;;;;;;;2.23;97.31;101805.53;4879164;29;20071;-77
2021/01/18 11:27:16;;;;;;;31.92;14.90;;;;;;;2.18;97.68;101797.13;4905936;29;20039;-77
2021/01/18 11:29:42;;;;;;;30.15;14.23;;;;;;;2.11;97.96;101795.69;4900121;29;20506;-75
2021/01/18 11:32:08;;;;;;;29.08;13.95;;;;;;;2.20;97.62;101787.53;4886148;29;20043;-76